Palermo, ME (04354)

12:25 AM EDT die 25o August, anno 2016 (GMT -0400)
Cross Road | | Change Station

Elev 341 ft 44.43 °N, 69.52 °W | Updated 19 seconds ago

Clear
Serena
64.3 °F
Feels Like 64.3 °F
N
1.0
Ventus Variabilis Ventus from Magis Auster quam Eurus
Gusts 5.0 mph

Hodie
High -- | Low -- °F
--% Chance of Precip.
Yesterday
High -- | Low -- °F
Precip. -- in
Pressio 30.17 in
Visibilitas 10.0 milia passuum
Clouds Serena
Frigus in quo Ros apparet 61 °F
Umor 88%
Rainfall 0.00 in
Snow Depth Not available.
5:52 AM 7:25 PM
Waning Gibbous, 50% visible
METAR KWVL 250356Z AUTO 21004KT 10SM CLR 18/16 A3007 RMK AO2 SLP214 T01780156
Pressio 30.17 in
Visibilitas 10.0 milia passuum
Clouds Serena
Frigus in quo Ros apparet 61 °F
Umor 88%
Rainfall 0.00 in
Snow Depth Not available.
5:52 AM 7:25 PM
Waning Gibbous, 50% visible
METAR KWVL 250356Z AUTO 21004KT 10SM CLR 18/16 A3007 RMK AO2 SLP214 T01780156

10-Day Weather Forecast

Almanac

Astronomy

Aug. 25, 2016 Rise Set
Actual Time
Civil Twilight
Nautical Twilight
Astronomical Twilight
Moon
Length Of Visible Light
Length of Day
Tomorrow will be .
, % of the Moon is Illuminated

Today's Extremes

State Highs State Lows

Community

WunderPhotos

Upload Photos

1,934,796 photos uploaded!

WunderBlog® & News

Nearby

Air Quality

  Air Quality AQ Index Pollutant
Not available.

Snow Depth

Station Depth Elevation

Earthquake Activity

City Distance Mag. Time & Date
Minimum magnitude displayed is 2.5.

Coastal Water Temperatures

Locus Calor

Stations

Nearby Weather Stations

Station Location Temp Frigus Venti Frigus in quo Ros apparet Umor Ventus Precip. Elev Renovata Type
                   

Watches & Warnings

There are currently no watches in effect.